Shirahamamaru — JG4872 — position and weather

sailwx.info

Track history (hours):
 
Tides and Currents Weather Stations Pressure Air Temp Water Temp Dewpoint Dewpoint Depression Visibility Wind Speed Wind Dir Waves Ship Positions

Shirahamamaru

Last reported at 2016-May-06 11:19 UTC. Time now 2016-May-06 18:41 UTC.
Position N 35°13' E 139°43'.

Length 79 m; draft 3.2 m.

Type: Passenger vessel. MMSI: 431000239.

Date/timePositionNaut miles runAvg speedWind from/ knotsBaromVisibWave heightAir tempDewpointWater temp
2016-May-06 11:19N 35°13' E 139°43'6 7.4
2016-May-06 10:33N 35°10' E 139°49'3 2.9
2016-May-06 09:33N 35°12' E 139°46'1 1.2
2016-May-06 08:33N 35°11' E 139°47'2 2.1
2016-May-06 07:33N 35°13' E 139°45'2 2.1
2016-May-06 06:33N 35°11' E 139°47'2 2.3
2016-May-06 05:33N 35°13' E 139°45'1 1.5
2016-May-06 04:33N 35°12' E 139°46'0 0.5
2016-May-06 03:33N 35°12' E 139°46'1 1.3
2016-May-06 02:33N 35°11' E 139°47'2 2.4
2016-May-06 01:32N 35°13' E 139°44'2 2.5
2016-May-06 00:33N 35°12' E 139°47'2 2.1
2016-May-05 23:33N 35°13' E 139°45'1 1.4
2016-May-05 22:33N 35°12' E 139°46'2 1.5
2016-May-05 21:33N 35°13' E 139°45'0 0.0
2016-May-05 11:33N 35°13' E 139°45'1 0.9
2016-May-05 10:33N 35°12' E 139°45'3 3.3
2016-May-05 09:33N 35°10' E 139°49'5 4.7
2016-May-05 08:33N 35°13' E 139°44'5 5.0
2016-May-05 07:33N 35°10' E 139°49'5 5.2
2016-May-05 06:33N 35°13' E 139°44'4 4.4
2016-May-05 05:33N 35°11' E 139°48'4 3.8
2016-May-05 04:33N 35°13' E 139°44'3 3.3
2016-May-05 03:33N 35°11' E 139°48'4 4.1
2016-May-05 02:33N 35°13' E 139°44'4 4.2
2016-May-05 01:33N 35°11' E 139°48'4 4.1
2016-May-05 00:33N 35°13' E 139°44'2 2.0
2016-May-04 23:33N 35°12' E 139°46'1 1.4
2016-May-04 22:31N 35°13' E 139°44'3 2.8
2016-May-04 21:33N 35°11' E 139°47'3 3.0
2016-May-04 20:33N 35°13' E 139°44'1 0.0
2016-May-03 12:33N 35°13' E 139°43'5 5.3
2016-May-03 11:33N 35°11' E 139°48'5 4.7
2016-May-03 10:27N 35°13' E 139°43'6 6.3
2016-May-03 09:31N 35°10' E 139°49'6 6.1
2016-May-03 08:33N 35°13' E 139°43'6 5.8
2016-May-03 07:33N 35°10' E 139°49'6 5.8
2016-May-03 06:32N 35°13' E 139°43'6 4.6
2016-May-03 05:16N 35°10' E 139°49'6 8.2
2016-May-03 04:33N 35°13' E 139°43'6 5.7
2016-May-03 03:32N 35°10' E 139°49'6 5.9
2016-May-03 02:32N 35°13' E 139°43'6 5.6
2016-May-03 01:32N 35°10' E 139°49'6 5.8
2016-May-03 00:33N 35°13' E 139°43'3 3.1
2016-May-02 23:33N 35°12' E 139°46'2 2.0
2016-May-02 22:33N 35°13' E 139°44'3 2.6
2016-May-02 21:33N 35°12' E 139°47'2 0.2
2016-May-02 11:05N 35°10' E 139°49'4 6.7
2016-May-02 10:33N 35°12' E 139°45'2 2.5
2016-May-02 09:34N 35°11' E 139°48'4 4.3
2016-May-02 08:33N 35°13' E 139°44'5 5.3
2016-May-02 07:33N 35°10' E 139°49'5 5.4
2016-May-02 06:33N 35°13' E 139°43'4 3.8
2016-May-02 05:34N 35°11' E 139°47'3 2.8
2016-May-02 04:32N 35°13' E 139°44'3 3.6
2016-May-02 03:33N 35°11' E 139°48'4 4.2
2016-May-02 02:33N 35°13' E 139°44'4 4.1
2016-May-02 01:33N 35°11' E 139°48'4 4.4
2016-May-02 00:33N 35°13' E 139°43'2 2.4
2016-May-01 23:33N 35°12' E 139°46'1 1.4
2016-May-01 22:32N 35°13' E 139°44'3 2.6
2016-May-01 21:33N 35°11' E 139°47'2 0.2
2016-May-01 12:11N 35°10' E 139°49'4 6.4
2016-May-01 11:33N 35°13' E 139°45'4 3.9
2016-May-01 10:34N 35°10' E 139°49'4 3.6
2016-May-01 09:33N 35°13' E 139°46'3 3.0
2016-May-01 08:33N 35°11' E 139°48'4 3.6
2016-May-01 07:32N 35°13' E 139°45'4 3.6
2016-May-01 06:33N 35°11' E 139°48'4 3.6
2016-May-01 05:33N 35°13' E 139°45'1 1.3
2016-May-01 04:33N 35°12' E 139°46'1 0.6
2016-May-01 03:33N 35°13' E 139°46'1 1.4
2016-May-01 02:33N 35°11' E 139°47'2 2.3
2016-May-01 01:33N 35°13' E 139°45'2 2.3
2016-May-01 00:33N 35°12' E 139°47'2 2.3
2016-Apr-30 23:33N 35°13' E 139°45'1 1.3
2016-Apr-30 22:33N 35°12' E 139°46'1 1.5
2016-Apr-30 21:33N 35°13' E 139°44'1 0.1
2016-Apr-30 11:15N 35°13' E 139°43'6 8.3
2016-Apr-30 10:33N 35°10' E 139°49'4 3.8
2016-Apr-30 09:34N 35°13' E 139°45'3 3.0
2016-Apr-30 08:33N 35°11' E 139°48'3 3.4
2016-Apr-30 07:33N 35°13' E 139°45'3 2.9
2016-Apr-30 06:33N 35°11' E 139°48'3 3.1
2016-Apr-30 05:33N 35°13' E 139°44'2 1.9
2016-Apr-30 04:33N 35°11' E 139°46'1 1.1
2016-Apr-30 03:33N 35°12' E 139°45'2 1.8
2016-Apr-30 02:33N 35°11' E 139°47'3 2.6
2016-Apr-30 01:33N 35°13' E 139°44'3 2.7
2016-Apr-30 00:33N 35°11' E 139°47'2 2.4
2016-Apr-29 23:33N 35°13' E 139°45'1 1.3
2016-Apr-29 22:33N 35°12' E 139°46'1 1.4
2016-Apr-29 21:33N 35°13' E 139°45'1 0.1
2016-Apr-29 11:14N 35°13' E 139°43'6 8.5
2016-Apr-29 10:34N 35°10' E 139°49'3 3.3
2016-Apr-29 09:33N 35°12' E 139°46'2 1.9
2016-Apr-29 08:33N 35°11' E 139°47'3 3.0
2016-Apr-29 07:33N 35°13' E 139°44'3 2.6
2016-Apr-29 06:33N 35°11' E 139°47'3 2.8
2016-Apr-29 05:30N 35°13' E 139°44'2 2.1
2016-Apr-29 04:34N 35°12' E 139°46'1 0.8
2016-Apr-29 03:32N 35°12' E 139°45'2 1.6
2016-Apr-29 02:34N 35°11' E 139°47'3 2.5
2016-Apr-29 01:33N 35°13' E 139°44'3 2.8
2016-Apr-29 00:33N 35°11' E 139°47'3 2.5
2016-Apr-28 23:33N 35°13' E 139°45'2 1.6
2016-Apr-28 22:33N 35°12' E 139°46'1 1.5
2016-Apr-28 21:33N 35°13' E 139°45'2 1.6
2016-Apr-28 20:33N 35°13' E 139°43'0 0.0
2016-Apr-28 11:11N 35°13' E 139°43'6 9.1
2016-Apr-28 10:33N 35°10' E 139°49'3 3.2
2016-Apr-28 09:33N 35°12' E 139°45'1 1.3
2016-Apr-28 08:34N 35°11' E 139°47'2 2.2
2016-Apr-28 07:33N 35°13' E 139°45'2 2.2
2016-Apr-28 06:33N 35°11' E 139°47'2 2.0
2016-Apr-28 05:33N 35°10' E 139°49'6 5.8
2016-Apr-28 04:33N 35°13' E 139°43'1 0.5
2016-Apr-28 03:33N 35°13' E 139°44'5 5.4
2016-Apr-28 02:33N 35°10' E 139°49'4 4.1
2016-Apr-28 01:34N 35°12' E 139°45'2 2.0
2016-Apr-28 00:34N 35°11' E 139°47'2 2.2
2016-Apr-27 23:33N 35°13' E 139°45'1 1.3
2016-Apr-27 22:33N 35°12' E 139°46'1 1.1
2016-Apr-27 21:33N 35°13' E 139°45'2 0.2
2016-Apr-27 11:08N 35°13' E 139°43'6 9.8
2016-Apr-27 10:33N 35°10' E 139°49'3 2.9
2016-Apr-27 09:33N 35°12' E 139°46'1 1.0
2016-Apr-27 08:33N 35°11' E 139°47'2 2.3
2016-Apr-27 07:33N 35°13' E 139°45'2 2.4
2016-Apr-27 06:33N 35°12' E 139°47'2 2.0
2016-Apr-27 05:33N 35°10' E 139°49'6 5.8
2016-Apr-27 04:32N 35°13' E 139°43'0 0.4
2016-Apr-27 03:33N 35°13' E 139°43'6 5.6
2016-Apr-27 02:33N 35°10' E 139°49'5 4.4
2016-Apr-27 01:32N 35°13' E 139°44'2 2.4
2016-Apr-27 00:33N 35°11' E 139°47'2 2.2
2016-Apr-26 23:33N 35°13' E 139°45'1 1.3
2016-Apr-26 22:33N 35°12' E 139°46'1 1.4
2016-Apr-26 21:32N 35°13' E 139°45'  
Track history (hours):
 
Tides and Currents Weather Stations Pressure Air Temp Water Temp Dewpoint Dewpoint Depression Visibility Wind Speed Wind Dir Waves Ship Positions

Shirahamamaru

Last reported at 2016-May-06 11:19 UTC. Time now 2016-May-06 18:41 UTC.
Position N 35°13' E 139°43'.

Length 79 m; draft 3.2 m.

Type: Passenger vessel. MMSI: 431000239.

Date/timePositionNaut miles runAvg speedWind from/ knotsBaromVisibWave heightAir tempDewpointWater temp
2016-May-06 11:19N 35°13' E 139°43'6 7.4
2016-May-06 10:33N 35°10' E 139°49'3 2.9
2016-May-06 09:33N 35°12' E 139°46'1 1.2
2016-May-06 08:33N 35°11' E 139°47'2 2.1
2016-May-06 07:33N 35°13' E 139°45'2 2.1
2016-May-06 06:33N 35°11' E 139°47'2 2.3
2016-May-06 05:33N 35°13' E 139°45'1 1.5
2016-May-06 04:33N 35°12' E 139°46'0 0.5
2016-May-06 03:33N 35°12' E 139°46'1 1.3
2016-May-06 02:33N 35°11' E 139°47'2 2.4
2016-May-06 01:32N 35°13' E 139°44'2 2.5
2016-May-06 00:33N 35°12' E 139°47'2 2.1
2016-May-05 23:33N 35°13' E 139°45'1 1.4
2016-May-05 22:33N 35°12' E 139°46'2 1.5
2016-May-05 21:33N 35°13' E 139°45'0 0.0
2016-May-05 11:33N 35°13' E 139°45'1 0.9
2016-May-05 10:33N 35°12' E 139°45'3 3.3
2016-May-05 09:33N 35°10' E 139°49'5 4.7
2016-May-05 08:33N 35°13' E 139°44'5 5.0
2016-May-05 07:33N 35°10' E 139°49'5 5.2
2016-May-05 06:33N 35°13' E 139°44'4 4.4
2016-May-05 05:33N 35°11' E 139°48'4 3.8
2016-May-05 04:33N 35°13' E 139°44'3 3.3
2016-May-05 03:33N 35°11' E 139°48'4 4.1
2016-May-05 02:33N 35°13' E 139°44'4 4.2
2016-May-05 01:33N 35°11' E 139°48'4 4.1
2016-May-05 00:33N 35°13' E 139°44'2 2.0
2016-May-04 23:33N 35°12' E 139°46'1 1.4
2016-May-04 22:31N 35°13' E 139°44'3 2.8
2016-May-04 21:33N 35°11' E 139°47'3 3.0
2016-May-04 20:33N 35°13' E 139°44'1 0.0
2016-May-03 12:33N 35°13' E 139°43'5 5.3
2016-May-03 11:33N 35°11' E 139°48'5 4.7
2016-May-03 10:27N 35°13' E 139°43'6 6.3
2016-May-03 09:31N 35°10' E 139°49'6 6.1
2016-May-03 08:33N 35°13' E 139°43'6 5.8
2016-May-03 07:33N 35°10' E 139°49'6 5.8
2016-May-03 06:32N 35°13' E 139°43'6 4.6
2016-May-03 05:16N 35°10' E 139°49'6 8.2
2016-May-03 04:33N 35°13' E 139°43'6 5.7
2016-May-03 03:32N 35°10' E 139°49'6 5.9
2016-May-03 02:32N 35°13' E 139°43'6 5.6
2016-May-03 01:32N 35°10' E 139°49'6 5.8
2016-May-03 00:33N 35°13' E 139°43'3 3.1
2016-May-02 23:33N 35°12' E 139°46'2 2.0
2016-May-02 22:33N 35°13' E 139°44'3 2.6
2016-May-02 21:33N 35°12' E 139°47'2 0.2
2016-May-02 11:05N 35°10' E 139°49'4 6.7
2016-May-02 10:33N 35°12' E 139°45'2 2.5
2016-May-02 09:34N 35°11' E 139°48'4 4.3
2016-May-02 08:33N 35°13' E 139°44'5 5.3
2016-May-02 07:33N 35°10' E 139°49'5 5.4
2016-May-02 06:33N 35°13' E 139°43'4 3.8
2016-May-02 05:34N 35°11' E 139°47'3 2.8
2016-May-02 04:32N 35°13' E 139°44'3 3.6
2016-May-02 03:33N 35°11' E 139°48'4 4.2
2016-May-02 02:33N 35°13' E 139°44'4 4.1
2016-May-02 01:33N 35°11' E 139°48'4 4.4
2016-May-02 00:33N 35°13' E 139°43'2 2.4
2016-May-01 23:33N 35°12' E 139°46'1 1.4
2016-May-01 22:32N 35°13' E 139°44'3 2.6
2016-May-01 21:33N 35°11' E 139°47'2 0.2
2016-May-01 12:11N 35°10' E 139°49'4 6.4
2016-May-01 11:33N 35°13' E 139°45'4 3.9
2016-May-01 10:34N 35°10' E 139°49'4 3.6
2016-May-01 09:33N 35°13' E 139°46'3 3.0
2016-May-01 08:33N 35°11' E 139°48'4 3.6
2016-May-01 07:32N 35°13' E 139°45'4 3.6
2016-May-01 06:33N 35°11' E 139°48'4 3.6
2016-May-01 05:33N 35°13' E 139°45'1 1.3
2016-May-01 04:33N 35°12' E 139°46'1 0.6
2016-May-01 03:33N 35°13' E 139°46'1 1.4
2016-May-01 02:33N 35°11' E 139°47'2 2.3
2016-May-01 01:33N 35°13' E 139°45'2 2.3
2016-May-01 00:33N 35°12' E 139°47'2 2.3
2016-Apr-30 23:33N 35°13' E 139°45'1 1.3
2016-Apr-30 22:33N 35°12' E 139°46'1 1.5
2016-Apr-30 21:33N 35°13' E 139°44'1 0.1
2016-Apr-30 11:15N 35°13' E 139°43'6 8.3
2016-Apr-30 10:33N 35°10' E 139°49'4 3.8
2016-Apr-30 09:34N 35°13' E 139°45'3 3.0
2016-Apr-30 08:33N 35°11' E 139°48'3 3.4
2016-Apr-30 07:33N 35°13' E 139°45'3 2.9
2016-Apr-30 06:33N 35°11' E 139°48'3 3.1
2016-Apr-30 05:33N 35°13' E 139°44'2 1.9
2016-Apr-30 04:33N 35°11' E 139°46'1 1.1
2016-Apr-30 03:33N 35°12' E 139°45'2 1.8
2016-Apr-30 02:33N 35°11' E 139°47'3 2.6
2016-Apr-30 01:33N 35°13' E 139°44'3 2.7
2016-Apr-30 00:33N 35°11' E 139°47'2 2.4
2016-Apr-29 23:33N 35°13' E 139°45'1 1.3
2016-Apr-29 22:33N 35°12' E 139°46'1 1.4
2016-Apr-29 21:33N 35°13' E 139°45'1 0.1
2016-Apr-29 11:14N 35°13' E 139°43'6 8.5
2016-Apr-29 10:34N 35°10' E 139°49'3 3.3
2016-Apr-29 09:33N 35°12' E 139°46'2 1.9
2016-Apr-29 08:33N 35°11' E 139°47'3 3.0
2016-Apr-29 07:33N 35°13' E 139°44'3 2.6
2016-Apr-29 06:33N 35°11' E 139°47'3 2.8
2016-Apr-29 05:30N 35°13' E 139°44'2 2.1
2016-Apr-29 04:34N 35°12' E 139°46'1 0.8
2016-Apr-29 03:32N 35°12' E 139°45'2 1.6
2016-Apr-29 02:34N 35°11' E 139°47'3 2.5
2016-Apr-29 01:33N 35°13' E 139°44'3 2.8
2016-Apr-29 00:33N 35°11' E 139°47'3 2.5
2016-Apr-28 23:33N 35°13' E 139°45'2 1.6
2016-Apr-28 22:33N 35°12' E 139°46'1 1.5
2016-Apr-28 21:33N 35°13' E 139°45'2 1.6
2016-Apr-28 20:33N 35°13' E 139°43'0 0.0
2016-Apr-28 11:11N 35°13' E 139°43'6 9.1
2016-Apr-28 10:33N 35°10' E 139°49'3 3.2
2016-Apr-28 09:33N 35°12' E 139°45'1 1.3
2016-Apr-28 08:34N 35°11' E 139°47'2 2.2
2016-Apr-28 07:33N 35°13' E 139°45'2 2.2
2016-Apr-28 06:33N 35°11' E 139°47'2 2.0
2016-Apr-28 05:33N 35°10' E 139°49'6 5.8
2016-Apr-28 04:33N 35°13' E 139°43'1 0.5
2016-Apr-28 03:33N 35°13' E 139°44'5 5.4
2016-Apr-28 02:33N 35°10' E 139°49'4 4.1
2016-Apr-28 01:34N 35°12' E 139°45'2 2.0
2016-Apr-28 00:34N 35°11' E 139°47'2 2.2
2016-Apr-27 23:33N 35°13' E 139°45'1 1.3
2016-Apr-27 22:33N 35°12' E 139°46'1 1.1
2016-Apr-27 21:33N 35°13' E 139°45'2 0.2
2016-Apr-27 11:08N 35°13' E 139°43'6 9.8
2016-Apr-27 10:33N 35°10' E 139°49'3 2.9
2016-Apr-27 09:33N 35°12' E 139°46'1 1.0
2016-Apr-27 08:33N 35°11' E 139°47'2 2.3
2016-Apr-27 07:33N 35°13' E 139°45'2 2.4
2016-Apr-27 06:33N 35°12' E 139°47'2 2.0
2016-Apr-27 05:33N 35°10' E 139°49'6 5.8
2016-Apr-27 04:32N 35°13' E 139°43'0 0.4
2016-Apr-27 03:33N 35°13' E 139°43'6 5.6
2016-Apr-27 02:33N 35°10' E 139°49'5 4.4
2016-Apr-27 01:32N 35°13' E 139°44'2 2.4
2016-Apr-27 00:33N 35°11' E 139°47'2 2.2
2016-Apr-26 23:33N 35°13' E 139°45'1 1.3
2016-Apr-26 22:33N 35°12' E 139°46'1 1.4
2016-Apr-26 21:32N 35°13' E 139°45'  

Dump ship's entire track history